Time;durP1;ratioP1;P1;durP2;ratioP2;P2;SDS_P1;SDS_P2;PMS_P1;PMS_P2;Temp;Humidity;BMP_temperature;BMP_pressure;BME280_temperature;BME280_humidity;BME280_pressure;Samples;Min_cycle;Max_cycle;Signal;HPM_P1;HPM_P2
2022/01/06 00:00:11;;;;;;;25.45;11.30;;;;;;;1.11;100.00;101013.59;5012694;28;20040;-78
2022/01/06 00:02:36;;;;;;;22.13;10.60;;;;;;;1.11;100.00;101003.00;5018238;28;20502;-79
2022/01/06 00:05:03;;;;;;;22.25;8.50;;;;;;;1.17;100.00;101005.22;5012176;28;20041;-78
2022/01/06 00:07:29;;;;;;;17.67;7.35;;;;;;;1.19;100.00;100992.72;5033126;28;20036;-77
2022/01/06 00:09:55;;;;;;;25.35;8.68;;;;;;;1.30;100.00;100995.44;5037064;28;20485;-77
2022/01/06 00:12:26;;;;;;;17.60;8.98;;;;;;;1.37;100.00;100981.75;5028091;28;20067;-78
2022/01/06 00:17:58;;;;;;;22.52;6.72;;;;;;;1.57;100.00;100959.13;5037354;28;20852;-79
2022/01/06 00:25:48;;;;;;;9.52;5.18;;;;;;;1.91;100.00;100958.28;5043876;28;20467;-79
2022/01/06 00:28:14;;;;;;;45.40;11.18;;;;;;;1.93;100.00;100919.25;5049551;28;20091;-77
2022/01/06 00:30:40;;;;;;;11.80;5.80;;;;;;;2.27;100.00;100943.19;5047259;28;20036;-77
2022/01/06 00:33:06;;;;;;;25.27;7.30;;;;;;;2.44;100.00;100941.06;5031095;28;20025;-78
2022/01/06 00:35:32;;;;;;;24.20;7.03;;;;;;;2.53;100.00;100919.09;5016161;28;20128;-77
2022/01/06 00:37:57;;;;;;;31.40;9.65;;;;;;;2.46;100.00;100916.09;5010589;28;20124;-82
2022/01/06 00:40:23;;;;;;;20.38;7.47;;;;;;;2.38;100.00;100905.19;5008771;28;20041;-78
2022/01/06 00:42:49;;;;;;;17.70;5.63;;;;;;;2.47;100.00;100907.16;5017945;28;20029;-78
2022/01/06 00:45:14;;;;;;;14.85;4.72;;;;;;;2.54;100.00;100902.19;5027610;28;20036;-82
2022/01/06 00:47:40;;;;;;;19.35;5.75;;;;;;;2.52;100.00;100897.03;5005140;28;20064;-77
2022/01/06 00:50:06;;;;;;;25.00;7.88;;;;;;;2.59;100.00;100894.72;5024564;28;20548;-82
2022/01/06 00:52:33;;;;;;;20.38;5.93;;;;;;;2.70;100.00;100889.44;5010656;28;20044;-77
2022/01/06 00:54:58;;;;;;;21.65;5.30;;;;;;;2.90;100.00;100885.16;5033695;28;20036;-78
2022/01/06 00:57:24;;;;;;;7.13;3.55;;;;;;;3.07;100.00;100879.34;5021430;28;20048;-78
2022/01/06 00:59:50;;;;;;;15.55;3.80;;;;;;;3.27;100.00;100874.22;5021815;28;20079;-78
2022/01/06 01:02:16;;;;;;;13.57;3.95;;;;;;;3.36;100.00;100862.84;5016049;28;20036;-78
2022/01/06 01:04:41;;;;;;;5.72;2.35;;;;;;;3.46;100.00;100858.44;5020068;28;20545;-79
2022/01/06 01:07:07;;;;;;;10.15;3.67;;;;;;;3.53;100.00;100853.47;5036040;28;20033;-79
2022/01/06 01:09:33;;;;;;;7.95;3.25;;;;;;;3.59;98.59;100847.63;5040525;28;20033;-79
2022/01/06 01:12:03;;;;;;;9.38;2.75;;;;;;;3.64;98.87;100837.44;5013473;28;20056;-79
2022/01/06 01:14:33;;;;;;;7.55;2.83;;;;;;;3.67;97.72;100836.34;5041876;28;20208;-78
2022/01/06 01:17:01;;;;;;;16.40;5.43;;;;;;;3.67;98.21;100828.38;5032203;28;20467;-78
2022/01/06 01:19:29;;;;;;;7.40;3.55;;;;;;;3.63;98.42;100818.97;5013598;28;20427;-78
2022/01/06 01:21:56;;;;;;;9.50;3.40;;;;;;;3.59;99.21;100814.88;5017356;28;20480;-79
2022/01/06 01:24:23;;;;;;;9.85;3.60;;;;;;;3.52;98.43;100810.09;5048467;28;20028;-79
2022/01/06 01:26:49;;;;;;;5.97;3.42;;;;;;;3.48;98.00;100805.97;5049231;28;20182;-80
2022/01/06 01:29:19;;;;;;;12.93;3.28;;;;;;;3.48;97.76;100781.22;5038871;28;20509;-81
2022/01/06 01:31:51;;;;;;;12.27;4.18;;;;;;;3.50;97.65;100785.44;5034212;28;20029;-78
2022/01/06 01:34:24;;;;;;;8.80;2.85;;;;;;;3.42;97.19;100763.13;5054536;28;20382;-78
2022/01/06 01:36:50;;;;;;;8.53;3.40;;;;;;;3.64;96.13;100778.09;5017484;28;20033;-79
2022/01/06 01:39:16;;;;;;;6.78;2.08;;;;;;;3.71;96.49;100776.63;5040867;28;20024;-77
2022/01/06 01:41:42;;;;;;;5.10;2.20;;;;;;;3.75;95.98;100778.03;5010552;28;20237;-79
2022/01/06 01:44:13;;;;;;;9.60;2.50;;;;;;;3.86;96.02;100775.28;5012151;28;20108;-78
2022/01/06 01:46:44;;;;;;;9.48;2.85;;;;;;;4.03;95.42;100775.66;5015982;28;20037;-78
2022/01/06 01:49:32;;;;;;;6.85;1.80;;;;;;;4.10;95.06;100764.34;5029053;28;20028;-78
2022/01/06 01:52:01;;;;;;;5.82;2.58;;;;;;;4.18;94.76;100758.34;5038308;28;20052;-80
2022/01/06 01:54:31;;;;;;;7.47;2.33;;;;;;;4.28;93.86;100767.22;5049094;28;20043;-78
2022/01/06 01:57:00;;;;;;;6.22;1.90;;;;;;;4.27;94.52;100746.91;5028406;28;20041;-81
2022/01/06 01:59:26;;;;;;;3.40;1.20;;;;;;;4.38;93.45;100748.63;5044063;28;20056;-78
2022/01/06 02:01:53;;;;;;;5.15;1.77;;;;;;;4.45;93.97;100741.78;5031122;28;20068;-78
2022/01/06 02:04:19;;;;;;;8.02;3.78;;;;;;;4.52;92.91;100726.06;5019865;28;20079;-78
2022/01/06 02:06:45;;;;;;;4.43;2.08;;;;;;;4.61;92.83;100728.75;5025919;28;20065;-78
2022/01/06 02:09:11;;;;;;;5.03;1.98;;;;;;;4.67;92.83;100714.06;5024852;28;20086;-78
2022/01/06 02:11:36;;;;;;;7.43;1.95;;;;;;;4.68;93.05;100707.72;5021144;28;20498;-78
2022/01/06 02:14:05;;;;;;;7.05;1.55;;;;;;;4.73;92.58;100707.31;5022019;28;20396;-79
2022/01/06 02:16:31;;;;;;;5.07;1.73;;;;;;;4.77;92.37;100704.25;5029402;28;20037;-78
2022/01/06 02:18:56;;;;;;;10.00;2.35;;;;;;;4.79;92.32;100699.63;5012457;28;20040;-78
2022/01/06 02:21:22;;;;;;;4.72;1.60;;;;;;;4.77;92.18;100688.25;5013585;28;20395;-77
2022/01/06 02:23:48;;;;;;;5.45;1.27;;;;;;;4.76;91.37;100653.75;5017632;28;20041;-77
2022/01/06 02:26:13;;;;;;;1.67;1.23;;;;;;;4.78;91.37;100654.47;5008218;28;20411;-78
2022/01/06 02:28:40;;;;;;;37.60;3.25;;;;;;;4.85;91.12;100659.09;5027958;28;20416;-79
2022/01/06 02:31:06;;;;;;;2.20;1.05;;;;;;;4.90;91.13;100649.84;5039225;28;20031;-78
2022/01/06 02:33:32;;;;;;;5.45;1.60;;;;;;;4.89;91.83;100629.50;5025775;28;20064;-81
2022/01/06 02:35:58;;;;;;;7.95;2.20;;;;;;;4.91;91.55;100632.88;5041705;28;20037;-79
2022/01/06 02:38:23;;;;;;;1.70;1.10;;;;;;;4.82;92.32;100614.09;5019026;28;20045;-78
2022/01/06 02:40:49;;;;;;;5.20;0.90;;;;;;;4.86;92.58;100609.31;5030252;28;20041;-78
2022/01/06 02:43:17;;;;;;;7.97;1.60;;;;;;;4.93;92.55;100610.44;5017553;28;20041;-80
2022/01/06 02:45:44;;;;;;;7.45;1.23;;;;;;;4.95;91.75;100607.59;5052134;28;20147;-79
2022/01/06 02:48:10;;;;;;;1.73;1.15;;;;;;;5.03;91.72;100595.28;5047124;28;20033;-78
2022/01/06 02:50:42;;;;;;;7.10;1.58;;;;;;;5.07;91.57;100591.31;5004845;28;20048;-79
2022/01/06 02:53:09;;;;;;;5.03;1.88;;;;;;;5.12;91.57;100588.22;5046545;28;20036;-80
2022/01/06 02:55:38;;;;;;;3.42;1.15;;;;;;;5.19;91.87;100580.50;5014738;28;20037;-78
2022/01/06 02:58:04;;;;;;;7.60;1.13;;;;;;;5.22;91.56;100564.22;5051900;28;20072;-78
2022/01/06 03:00:30;;;;;;;4.05;1.67;;;;;;;5.28;91.37;100567.13;5017111;28;20483;-78
2022/01/06 03:02:55;;;;;;;9.30;2.17;;;;;;;5.28;91.13;100556.47;5015430;28;20036;-78
2022/01/06 03:05:21;;;;;;;8.52;1.77;;;;;;;5.33;91.16;100547.19;5017626;28;20041;-82
2022/01/06 03:07:47;;;;;;;4.05;1.20;;;;;;;5.39;90.92;100546.59;5018651;28;20360;-78
2022/01/06 03:10:15;;;;;;;3.60;1.85;;;;;;;5.45;91.16;100533.53;5031393;28;20025;-82
2022/01/06 03:12:43;;;;;;;1.70;1.08;;;;;;;5.49;90.94;100518.06;5044174;28;20041;-77
2022/01/06 03:15:18;;;;;;;10.52;1.92;;;;;;;5.54;90.95;100522.97;5004597;28;20044;-80
2022/01/06 03:17:47;;;;;;;5.07;2.08;;;;;;;5.57;91.61;100507.47;5043655;28;20045;-78
2022/01/06 03:20:14;;;;;;;6.70;1.63;;;;;;;5.57;91.30;100502.16;5024219;28;20083;-78
2022/01/06 03:22:40;;;;;;;8.48;1.15;;;;;;;5.64;91.65;100507.75;5034206;28;20032;-79
2022/01/06 03:25:07;;;;;;;5.50;2.72;;;;;;;5.59;91.96;100486.00;5038939;28;20098;-77
2022/01/06 03:27:33;;;;;;;8.20;1.20;;;;;;;5.58;92.20;100474.47;5031354;28;20036;-78
2022/01/06 03:29:59;;;;;;;3.15;1.13;;;;;;;5.55;92.56;100431.28;5017048;28;20391;-80
2022/01/06 03:32:25;;;;;;;7.18;1.38;;;;;;;5.58;92.54;100446.97;5009560;28;20064;-78
2022/01/06 03:34:51;;;;;;;10.13;1.13;;;;;;;5.60;93.24;100443.16;5001077;28;20391;-77
2022/01/06 03:37:16;;;;;;;3.38;1.17;;;;;;;5.57;93.56;100432.81;5045825;28;20048;-81
2022/01/06 03:39:43;;;;;;;7.35;1.30;;;;;;;5.63;94.15;100432.19;5046489;28;20116;-78
2022/01/06 03:42:10;;;;;;;1.80;0.95;;;;;;;5.65;94.69;100424.06;5054002;28;20059;-77
2022/01/06 03:44:35;;;;;;;5.25;1.85;;;;;;;5.72;94.81;100420.63;5049242;28;20041;-78
2022/01/06 03:47:02;;;;;;;6.45;1.25;;;;;;;5.78;94.82;100413.00;5018300;28;20077;-78
2022/01/06 03:49:27;;;;;;;7.03;1.90;;;;;;;5.80;95.91;100406.53;5016432;28;20485;-78
2022/01/06 03:51:53;;;;;;;4.78;1.50;;;;;;;5.81;95.99;100400.19;5016839;28;20045;-79
2022/01/06 03:54:19;;;;;;;10.13;2.45;;;;;;;5.65;96.76;100387.53;5015587;28;20479;-77
2022/01/06 03:56:48;;;;;;;3.17;1.23;;;;;;;5.68;97.74;100402.41;5013966;28;20087;-78
2022/01/06 03:59:15;;;;;;;9.10;1.70;;;;;;;5.65;99.15;100394.72;5021505;28;20044;-78
2022/01/06 04:01:41;;;;;;;2.30;1.00;;;;;;;5.63;100.00;100394.84;5034691;28;20486;-79
2022/01/06 04:04:07;;;;;;;9.25;1.38;;;;;;;5.57;100.00;100386.63;5050665;28;20052;-79
2022/01/06 04:06:32;;;;;;;8.77;1.42;;;;;;;5.55;100.00;100380.59;5015031;28;20128;-79
2022/01/06 04:08:58;;;;;;;7.97;1.73;;;;;;;5.48;100.00;100375.06;5032544;28;20437;-78
2022/01/06 04:11:23;;;;;;;8.80;1.90;;;;;;;5.58;100.00;100377.63;5042287;28;20025;-78
2022/01/06 04:13:49;;;;;;;8.57;1.95;;;;;;;5.56;100.00;100369.81;5016620;28;20037;-81
2022/01/06 04:16:17;;;;;;;9.30;1.75;;;;;;;5.56;100.00;100363.59;5016697;28;20037;-77
2022/01/06 04:18:43;;;;;;;7.82;1.40;;;;;;;5.54;100.00;100358.44;5030166;28;20041;-78
2022/01/06 04:21:09;;;;;;;4.82;1.45;;;;;;;5.49;100.00;100337.56;5006110;28;20128;-78
2022/01/06 04:23:35;;;;;;;4.68;1.17;;;;;;;5.45;100.00;100333.53;5015533;28;20124;-79
2022/01/06 04:26:00;;;;;;;11.52;1.75;;;;;;;5.45;100.00;100327.34;5047312;28;20184;-78
2022/01/06 04:28:26;;;;;;;2.53;1.40;;;;;;;5.44;100.00;100307.03;5029422;28;20041;-78
2022/01/06 04:30:52;;;;;;;13.68;2.00;;;;;;;5.44;100.00;100336.34;5027739;28;20036;-79
2022/01/06 04:33:18;;;;;;;3.45;1.20;;;;;;;5.44;100.00;100318.50;5018132;28;20063;-78
2022/01/06 04:35:44;;;;;;;8.73;1.38;;;;;;;5.46;100.00;100305.03;5048879;28;20072;-79
2022/01/06 04:38:09;;;;;;;8.60;1.77;;;;;;;5.49;100.00;100308.22;5044114;28;20036;-78
2022/01/06 04:40:35;;;;;;;11.70;2.15;;;;;;;5.45;100.00;100293.53;5019730;28;20402;-78
2022/01/06 04:43:01;;;;;;;5.68;1.40;;;;;;;5.39;100.00;100274.66;5027959;28;20095;-83
2022/01/06 04:45:27;;;;;;;5.78;1.48;;;;;;;5.49;100.00;100272.72;5023617;28;20037;-78
2022/01/06 04:47:52;;;;;;;18.23;3.33;;;;;;;5.48;100.00;100252.41;5016067;28;20090;-80
2022/01/06 04:50:18;;;;;;;2.28;1.10;;;;;;;5.52;100.00;100253.75;5031937;28;20068;-77
2022/01/06 04:52:44;;;;;;;5.65;1.42;;;;;;;5.53;100.00;100234.09;5016496;28;20520;-78
2022/01/06 04:55:10;;;;;;;2.63;1.23;;;;;;;5.50;100.00;100216.59;5012407;28;20116;-77
2022/01/06 04:57:35;;;;;;;3.90;1.17;;;;;;;5.56;100.00;100214.25;5018099;28;20513;-79
2022/01/06 05:00:03;;;;;;;4.18;1.45;;;;;;;5.52;100.00;100200.41;5012580;28;20033;-78
2022/01/06 05:02:29;;;;;;;6.10;1.35;;;;;;;5.55;100.00;100152.09;5010856;28;20441;-78
2022/01/06 05:04:54;;;;;;;3.35;1.40;;;;;;;5.55;100.00;100132.59;5021345;28;20049;-78
2022/01/06 05:07:20;;;;;;;4.25;1.42;;;;;;;5.59;100.00;100132.13;5017395;28;20036;-79
2022/01/06 05:09:46;;;;;;;1.98;1.02;;;;;;;5.63;100.00;100114.78;5015529;28;20199;-79
2022/01/06 05:12:11;;;;;;;1.85;1.20;;;;;;;5.63;100.00;100114.78;5017497;28;20029;-79
2022/01/06 05:14:39;;;;;;;1.85;1.23;;;;;;;5.67;100.00;100110.81;5034123;28;20502;-79
2022/01/06 05:17:05;;;;;;;5.05;1.73;;;;;;;5.76;100.00;100101.03;5031357;28;20055;-79
2022/01/06 05:19:30;;;;;;;6.50;2.58;;;;;;;5.78;100.00;100093.69;5002723;28;20044;-80
2022/01/06 05:21:56;;;;;;;8.90;2.53;;;;;;;5.86;100.00;100084.88;5003718;28;20400;-78
2022/01/06 05:24:23;;;;;;;4.93;1.85;;;;;;;5.89;100.00;100088.06;5007667;28;20395;-80
2022/01/06 05:26:49;;;;;;;3.67;1.83;;;;;;;5.77;100.00;100053.84;5033029;28;20062;-80
2022/01/06 05:29:16;;;;;;;7.28;1.83;;;;;;;5.96;100.00;100074.94;5006209;28;20310;-80
2022/01/06 05:31:41;;;;;;;9.40;2.75;;;;;;;6.00;100.00;100073.63;5017746;28;20044;-80
2022/01/06 05:34:07;;;;;;;3.40;1.90;;;;;;;5.97;100.00;100057.09;5031239;28;20399;-79
2022/01/06 05:36:34;;;;;;;2.42;1.08;;;;;;;6.06;100.00;100075.66;5012578;28;20055;-83
2022/01/06 05:39:00;;;;;;;3.55;1.33;;;;;;;6.07;100.00;100050.63;5016988;28;20040;-79
2022/01/06 05:41:26;;;;;;;0.80;0.80;;;;;;;6.12;100.00;100050.13;5037707;28;20048;-79
2022/01/06 05:43:52;;;;;;;0.90;0.90;;;;;;;6.12;100.00;100031.44;5019849;28;20037;-79
2022/01/06 05:46:18;;;;;;;2.88;1.20;;;;;;;6.08;100.00;100017.59;5026671;28;20037;-83
2022/01/06 05:48:44;;;;;;;5.78;1.20;;;;;;;6.16;100.00;100022.94;5020456;28;20038;-79
2022/01/06 05:51:10;;;;;;;3.25;1.35;;;;;;;6.19;100.00;100015.59;5019325;28;20043;-79
2022/01/06 05:53:36;;;;;;;2.50;1.55;;;;;;;6.21;100.00;100014.44;5002122;28;20380;-80
2022/01/06 05:56:02;;;;;;;1.75;1.20;;;;;;;6.22;100.00;100007.25;5014682;28;20541;-80
2022/01/06 05:58:27;;;;;;;0.68;0.68;;;;;;;6.19;100.00;100004.91;5016058;28;20126;-79
2022/01/06 06:00:53;;;;;;;3.17;1.25;;;;;;;6.20;100.00;99991.41;5008468;28;20162;-78
2022/01/06 06:03:18;;;;;;;3.70;1.30;;;;;;;6.21;100.00;99982.41;5003782;28;20042;-78
2022/01/06 06:05:44;;;;;;;1.20;0.80;;;;;;;6.20;100.00;99971.91;5013096;28;20037;-79
2022/01/06 06:08:10;;;;;;;0.80;0.80;;;;;;;6.22;100.00;99973.41;5015597;28;20049;-80
2022/01/06 06:10:36;;;;;;;5.88;1.10;;;;;;;6.26;100.00;99944.53;5016388;28;20111;-79
2022/01/06 06:13:02;;;;;;;1.13;0.85;;;;;;;6.30;100.00;99953.88;5049616;28;20475;-80
2022/01/06 06:15:34;;;;;;;12.52;1.77;;;;;;;6.31;100.00;99929.66;5032803;28;20045;-78
2022/01/06 06:18:03;;;;;;;2.53;1.38;;;;;;;6.32;100.00;99922.50;5028632;28;20033;-80
2022/01/06 06:20:29;;;;;;;2.70;1.23;;;;;;;6.36;100.00;99926.50;5013809;28;20048;-79
2022/01/06 06:22:55;;;;;;;1.20;0.73;;;;;;;6.35;100.00;99924.81;5032800;28;20052;-78
2022/01/06 06:25:21;;;;;;;5.15;1.00;;;;;;;6.39;100.00;99913.63;5012615;28;20033;-79
2022/01/06 06:27:46;;;;;;;1.40;0.85;;;;;;;6.47;100.00;99910.13;5015839;28;20032;-80
2022/01/06 06:30:12;;;;;;;1.50;0.95;;;;;;;6.51;100.00;99913.28;5032343;28;20394;-79
2022/01/06 06:32:38;;;;;;;0.90;0.85;;;;;;;6.53;100.00;99904.09;5012872;28;20108;-79
2022/01/06 06:35:05;;;;;;;1.67;0.93;;;;;;;6.57;100.00;99901.94;5018007;28;20147;-79
2022/01/06 06:37:31;;;;;;;1.02;0.80;;;;;;;6.61;100.00;99887.22;5032903;28;20025;-77
2022/01/06 06:39:57;;;;;;;0.98;0.82;;;;;;;6.63;100.00;99877.19;5032772;28;20471;-78
2022/01/06 06:42:27;;;;;;;1.17;0.55;;;;;;;6.62;100.00;99875.53;5037043;28;20262;-80
2022/01/06 06:44:53;;;;;;;0.90;0.77;;;;;;;6.69;100.00;99867.66;5026315;28;20183;-81
2022/01/06 06:47:19;;;;;;;1.75;1.00;;;;;;;6.71;100.00;99862.97;5045499;28;20127;-80
2022/01/06 06:49:44;;;;;;;0.73;0.60;;;;;;;6.74;100.00;99854.63;5005350;28;20049;-78
2022/01/06 06:52:10;;;;;;;0.77;0.70;;;;;;;6.73;100.00;99820.91;5004233;28;20044;-80
2022/01/06 06:54:36;;;;;;;0.70;0.70;;;;;;;6.81;100.00;99836.91;5020060;28;20036;-78
2022/01/06 06:57:02;;;;;;;0.90;0.80;;;;;;;6.80;100.00;99821.84;5024908;28;20040;-80
2022/01/06 06:59:27;;;;;;;0.60;0.60;;;;;;;6.84;100.00;99823.19;5001866;28;20479;-79
2022/01/06 07:01:53;;;;;;;0.60;0.60;;;;;;;6.82;100.00;99818.00;5015287;28;20040;-79
2022/01/06 07:04:19;;;;;;;0.73;0.70;;;;;;;6.86;100.00;99820.34;5020719;28;20047;-78
2022/01/06 07:06:44;;;;;;;0.50;0.50;;;;;;;6.92;100.00;99822.31;5046222;28;20029;-78
2022/01/06 07:09:10;;;;;;;2.13;0.60;;;;;;;6.90;100.00;99801.09;5026135;28;20489;-83
2022/01/06 07:11:36;;;;;;;0.57;0.57;;;;;;;6.92;100.00;99803.59;5020490;28;20055;-79
2022/01/06 07:14:02;;;;;;;0.82;0.82;;;;;;;6.94;100.00;99796.25;5017253;28;20485;-79
2022/01/06 07:16:27;;;;;;;0.50;0.50;;;;;;;6.97;100.00;99790.53;5034728;28;20036;-77
2022/01/06 07:18:53;;;;;;;0.45;0.45;;;;;;;6.99;100.00;99767.97;5019781;28;20055;-79
2022/01/06 07:21:19;;;;;;;0.65;0.65;;;;;;;7.05;100.00;99791.31;5031488;28;20037;-78
2022/01/06 07:23:44;;;;;;;3.45;0.70;;;;;;;7.08;100.00;99778.63;5034293;28;20131;-79
2022/01/06 07:26:10;;;;;;;1.48;0.70;;;;;;;7.16;100.00;99781.22;5032489;28;20500;-79
2022/01/06 07:28:36;;;;;;;0.70;0.70;;;;;;;7.18;100.00;99768.53;5012815;28;20037;-78
2022/01/06 07:31:04;;;;;;;0.98;0.93;;;;;;;7.20;100.00;99761.16;5052335;28;20049;-77
2022/01/06 07:33:30;;;;;;;0.43;0.43;;;;;;;7.21;100.00;99757.47;5017123;28;20029;-79
2022/01/06 07:35:56;;;;;;;1.23;0.70;;;;;;;7.20;100.00;99747.81;5016394;28;20033;-79
2022/01/06 07:38:21;;;;;;;1.95;0.60;;;;;;;7.27;100.00;99754.06;5016516;28;20037;-78
2022/01/06 07:40:47;;;;;;;0.50;0.50;;;;;;;7.27;100.00;99754.06;5035622;28;20475;-80
2022/01/06 07:43:13;;;;;;;4.10;0.80;;;;;;;7.29;100.00;99737.88;5015652;28;20361;-78
2022/01/06 07:45:38;;;;;;;0.77;0.50;;;;;;;7.32;100.00;99746.34;5020644;28;20072;-78
2022/01/06 07:48:14;;;;;;;0.75;0.70;;;;;;;7.34;100.00;99733.63;5037679;28;20059;-79
2022/01/06 07:50:41;;;;;;;2.60;0.77;;;;;;;7.39;100.00;99735.78;5032075;28;20032;-79
2022/01/06 07:53:07;;;;;;;1.48;0.70;;;;;;;7.40;100.00;99729.41;5042557;28;20136;-78
2022/01/06 07:55:38;;;;;;;0.47;0.47;;;;;;;7.40;100.00;99745.44;5028653;28;20112;-79
2022/01/06 07:58:05;;;;;;;1.95;0.77;;;;;;;7.44;100.00;99742.25;5017047;28;20072;-79
2022/01/06 08:00:31;;;;;;;0.77;0.60;;;;;;;7.47;100.00;99759.78;5016085;28;20079;-81
2022/01/06 08:02:59;;;;;;;3.00;1.40;;;;;;;7.48;100.00;99764.94;5015501;28;20566;-79
2022/01/06 08:05:26;;;;;;;2.08;1.00;;;;;;;7.51;100.00;99768.25;5032034;28;20068;-81
2022/01/06 08:07:53;;;;;;;0.60;0.60;;;;;;;7.52;100.00;99800.19;5043499;28;20033;-78
2022/01/06 08:10:19;;;;;;;0.73;0.52;;;;;;;7.53;100.00;99820.56;5040047;28;20069;-78
2022/01/06 08:12:45;;;;;;;0.50;0.50;;;;;;;7.58;100.00;99812.00;5032622;28;20071;-79
2022/01/06 08:15:11;;;;;;;0.75;0.75;;;;;;;7.65;100.00;99792.41;5041025;28;20480;-80
2022/01/06 08:17:37;;;;;;;0.50;0.50;;;;;;;7.61;100.00;99785.72;5006466;28;20049;-78
2022/01/06 08:20:07;;;;;;;1.02;0.73;;;;;;;7.59;100.00;99801.13;5036905;28;20063;-77
2022/01/06 08:22:33;;;;;;;0.57;0.57;;;;;;;7.49;100.00;99801.38;5031641;28;20048;-79
2022/01/06 08:24:58;;;;;;;0.77;0.50;;;;;;;7.36;100.00;99785.09;5028757;28;20046;-79
2022/01/06 08:27:25;;;;;;;0.93;0.50;;;;;;;7.27;100.00;99794.19;5044773;28;20036;-78
2022/01/06 08:29:54;;;;;;;0.40;0.40;;;;;;;7.16;100.00;99792.75;5023685;28;20482;-79
2022/01/06 08:32:20;;;;;;;0.60;0.60;;;;;;;7.09;100.00;99791.78;5031342;28;20037;-79
2022/01/06 08:34:46;;;;;;;0.40;0.40;;;;;;;7.00;100.00;99795.53;5029222;28;20041;-77
2022/01/06 08:37:12;;;;;;;0.50;0.50;;;;;;;6.95;100.00;99797.91;5045359;28;20040;-80
2022/01/06 08:39:37;;;;;;;0.45;0.45;;;;;;;6.94;100.00;99794.41;5009513;28;20121;-78
2022/01/06 08:42:04;;;;;;;0.40;0.40;;;;;;;6.96;100.00;99781.69;5042477;28;20025;-77
2022/01/06 08:44:30;;;;;;;0.40;0.40;;;;;;;7.12;100.00;99779.91;5045553;28;20029;-78
2022/01/06 08:46:56;;;;;;;1.23;0.70;;;;;;;7.16;100.00;99773.22;5026949;28;20039;-79
2022/01/06 08:49:22;;;;;;;0.50;0.50;;;;;;;7.13;100.00;99760.22;5007570;28;20391;-79
2022/01/06 08:51:48;;;;;;;0.73;0.73;;;;;;;7.18;100.00;99772.03;5046832;28;20032;-77
2022/01/06 08:54:14;;;;;;;0.50;0.50;;;;;;;7.22;100.00;99777.84;5037198;28;20494;-79
2022/01/06 08:56:40;;;;;;;0.45;0.45;;;;;;;7.17;100.00;99756.16;5046101;28;20025;-78
2022/01/06 08:59:05;;;;;;;2.42;0.63;;;;;;;7.02;100.00;99750.75;5025605;28;20091;-78
2022/01/06 09:01:31;;;;;;;1.27;0.60;;;;;;;6.93;100.00;99755.34;5043049;28;20252;-79
2022/01/06 09:03:57;;;;;;;0.55;0.55;;;;;;;6.88;100.00;99754.19;5033632;28;20398;-80
2022/01/06 09:06:23;;;;;;;1.45;0.65;;;;;;;6.82;100.00;99745.03;5033140;28;20043;-79
2022/01/06 09:08:49;;;;;;;8.63;1.52;;;;;;;6.81;100.00;99738.84;5017465;28;20110;-78
2022/01/06 09:11:15;;;;;;;0.43;0.43;;;;;;;6.85;100.00;99742.00;5031259;28;20158;-78
2022/01/06 09:13:43;;;;;;;0.40;0.40;;;;;;;6.85;100.00;99755.34;5030169;28;20048;-79
2022/01/06 09:16:09;;;;;;;3.00;0.60;;;;;;;6.87;100.00;99753.34;5050463;28;20558;-80
2022/01/06 09:18:36;;;;;;;0.40;0.40;;;;;;;6.86;100.00;99741.00;5031827;28;20499;-77
2022/01/06 09:21:03;;;;;;;13.68;1.52;;;;;;;6.88;100.00;99762.19;5033504;28;20044;-79
2022/01/06 09:23:28;;;;;;;0.50;0.50;;;;;;;6.88;100.00;99768.41;5014884;28;20033;-78
2022/01/06 09:25:54;;;;;;;2.58;0.85;;;;;;;6.90;100.00;99771.69;5016857;28;20146;-78
2022/01/06 09:28:20;;;;;;;1.77;0.57;;;;;;;6.88;100.00;99780.91;5028093;28;20041;-78
2022/01/06 09:30:46;;;;;;;2.25;0.82;;;;;;;6.84;100.00;99791.13;5015783;28;20052;-81
2022/01/06 09:33:13;;;;;;;8.25;1.63;;;;;;;6.75;100.00;99754.78;5010841;28;20128;-78
2022/01/06 09:35:39;;;;;;;2.50;1.25;;;;;;;6.69;100.00;99774.16;5015692;28;20074;-80
2022/01/06 09:38:04;;;;;;;7.68;1.85;;;;;;;6.62;100.00;99776.72;5033177;28;20052;-79
2022/01/06 09:40:30;;;;;;;1.52;0.70;;;;;;;6.65;100.00;99751.50;5034628;28;20548;-82
2022/01/06 09:42:56;;;;;;;5.72;0.93;;;;;;;6.70;100.00;99778.50;5038956;28;20389;-80
2022/01/06 09:45:26;;;;;;;6.05;1.77;;;;;;;6.72;100.00;99773.81;5007474;28;20040;-78
2022/01/06 09:47:52;;;;;;;1.35;0.80;;;;;;;6.74;100.00;99775.28;5035933;28;20121;-78
2022/01/06 09:50:18;;;;;;;2.40;1.10;;;;;;;6.69;100.00;99771.47;5016666;28;20093;-81
2022/01/06 09:52:46;;;;;;;0.60;0.60;;;;;;;6.51;100.00;99745.03;5051564;28;20063;-84
2022/01/06 09:55:12;;;;;;;0.50;0.50;;;;;;;6.64;100.00;99784.53;5055830;28;20037;-82
2022/01/06 09:57:37;;;;;;;3.00;1.17;;;;;;;6.55;100.00;99787.25;5015362;28;20048;-83
2022/01/06 10:00:05;;;;;;;0.75;0.75;;;;;;;6.73;100.00;99778.97;5017979;28;20039;-81
2022/01/06 10:02:36;;;;;;;1.13;0.50;;;;;;;7.49;100.00;99766.63;5050599;28;20079;-81
2022/01/06 10:05:03;;;;;;;1.88;1.13;;;;;;;7.26;100.00;99781.84;5034990;28;20033;-82
2022/01/06 10:07:39;;;;;;;4.20;1.42;;;;;;;6.93;100.00;99784.72;5026973;28;20068;-84
2022/01/06 10:10:10;;;;;;;4.82;1.38;;;;;;;6.81;100.00;99765.56;5059847;28;20028;-81
2022/01/06 10:12:39;;;;;;;2.22;1.23;;;;;;;6.93;100.00;99787.41;5046770;28;20029;-82
2022/01/06 10:15:17;;;;;;;1.48;1.13;;;;;;;7.53;100.00;99790.31;5057094;28;20025;-83
2022/01/06 10:17:43;;;;;;;9.98;1.55;;;;;;;7.63;100.00;99790.91;5057706;28;20037;-82
2022/01/06 10:20:17;;;;;;;0.50;0.50;;;;;;;7.59;100.00;99774.38;5054585;28;20068;-82
2022/01/06 10:22:45;;;;;;;1.08;0.93;;;;;;;7.67;100.00;99773.47;5036436;28;20044;-81
2022/01/06 10:25:12;;;;;;;3.08;1.38;;;;;;;7.74;100.00;99787.78;5051377;28;20293;-81
2022/01/06 10:27:38;;;;;;;7.20;1.52;;;;;;;7.88;100.00;99789.66;5045302;28;20056;-82
2022/01/06 10:30:08;;;;;;;3.22;1.70;;;;;;;8.14;100.00;99758.94;5028120;28;20498;-87
2022/01/06 10:32:34;;;;;;;5.78;2.05;;;;;;;9.84;100.00;99764.75;5048165;28;20051;-84
2022/01/06 10:35:02;;;;;;;0.55;0.55;;;;;;;10.91;94.34;99789.53;5007620;28;20041;-84
2022/01/06 10:37:31;;;;;;;2.05;1.15;;;;;;;11.34;89.83;99759.59;5057860;28;20398;-84
2022/01/06 10:39:59;;;;;;;1.15;1.05;;;;;;;10.12;92.81;99761.19;5010453;28;20052;-87
2022/01/06 10:42:30;;;;;;;2.15;0.98;;;;;;;10.89;92.07;99781.63;5043973;28;20036;-86
2022/01/06 10:45:04;;;;;;;3.45;1.33;;;;;;;12.08;87.23;99775.56;5034788;28;20128;-87
2022/01/06 10:47:32;;;;;;;3.42;1.38;;;;;;;11.62;87.65;99778.28;5042833;28;20131;-85
2022/01/06 10:50:13;;;;;;;4.32;1.98;;;;;;;9.89;94.55;99785.59;5052530;28;20063;-86
2022/01/06 10:52:41;;;;;;;29.35;1.75;;;;;;;8.63;100.00;99793.22;5025474;28;20056;-83
2022/01/06 10:55:23;;;;;;;8.80;1.88;;;;;;;7.76;100.00;99785.78;5046323;28;20375;-88
2022/01/06 10:58:02;;;;;;;9.43;2.05;;;;;;;6.89;100.00;99802.09;5043262;28;20036;-87
2022/01/06 11:00:42;;;;;;;1.73;1.52;;;;;;;6.42;100.00;99821.69;5049368;28;20120;-83
2022/01/06 11:03:16;;;;;;;3.10;1.17;;;;;;;6.13;100.00;99836.41;5030192;28;20048;-84
2022/01/06 11:05:46;;;;;;;5.13;1.23;;;;;;;6.00;100.00;99814.75;5023501;28;20026;-85
2022/01/06 11:08:13;;;;;;;2.20;0.80;;;;;;;6.97;100.00;99796.72;5049927;28;20059;-86
2022/01/06 11:10:46;;;;;;;5.20;2.78;;;;;;;8.49;100.00;99802.09;5037659;28;20049;-85
2022/01/06 11:13:14;;;;;;;1.17;1.08;;;;;;;9.66;94.15;99805.47;5031451;28;20036;-86
2022/01/06 11:15:40;;;;;;;1.27;0.85;;;;;;;10.23;89.76;99787.50;5047350;28;20112;-87
2022/01/06 11:18:06;;;;;;;1.05;0.93;;;;;;;8.62;93.87;99791.56;5035590;28;20048;-87
2022/01/06 11:20:35;;;;;;;1.33;0.80;;;;;;;7.40;100.00;99780.22;5017721;28;20057;-88
2022/01/06 11:23:01;;;;;;;0.60;0.60;;;;;;;6.67;100.00;99768.16;5023097;28;20051;-87
2022/01/06 11:25:37;;;;;;;0.50;0.50;;;;;;;6.28;100.00;99791.19;5014939;28;20487;-86
2022/01/06 11:28:09;;;;;;;0.60;0.60;;;;;;;6.03;100.00;99793.06;5033555;28;20045;-86
2022/01/06 11:30:51;;;;;;;0.60;0.60;;;;;;;6.63;100.00;99791.72;5043559;28;20083;-88
2022/01/06 11:33:17;;;;;;;1.15;0.63;;;;;;;6.93;100.00;99799.91;5018271;28;20174;-85
2022/01/06 11:35:57;;;;;;;0.50;0.50;;;;;;;6.89;100.00;99793.28;5050030;28;20479;-85